ESSV/VBY METAR and TAF weather

Enter ICAO airport designator
Station Type Date Time Source
ESSV METAR 2020/04/06 09:50 UTC NOAA

ESSV 060950Z 19014KT CAVOK 14/M03 Q1029


Station Type Date Time Source
ESSV Decoded METAR 2020/04/06 09:50 UTC NOAA

Visby Flygplats, Sweden (ESSV) 57-40N 018-21E 47M
Apr 06, 2020 - 05:50 AM EDT / 2020.04.06 0950 UTC
Wind: from the S (190 degrees) at 16 MPH (14 KT):0
Visibility: greater than 7 mile(s):0
Temperature: 57 F (14 C)
Dew Point: 26 F (-3 C)
Relative Humidity: 30%
Pressure (altimeter): 30.39 in. Hg (1029 hPa)
ob: ESSV 060950Z 19014KT CAVOK 14/M03 Q1029
cycle: 10

Station Type Date Time Source
ESSV TAF 2017/09/20 09:39 UTC NOAA

TAF COR TAF COR ESSV 200840Z 2009/2021 10005KT 9999 BKN030 PROB40 2009/2016 4000 TS SHRA BKN015CB

Example: see airport list